Ana Sayfa
METAR-TAF:

METAR-TAF

Havaalanları :

El Palmar

Santa Ana, El Salvador

Enlem: 13-59N, Boylam: 089-34W, yükseklik: 725 m

Güncel hava durumu gözlemi

Rapor saat 20:50 UTC de 16 saat ve 5 dakika önce yapıldı.
Rüzgar kuzeydan 3 kt
Sıcaklık 37°C
Nem 35%
Basınç 1016 hPa
Görüş mesafesi 10 km veya daha fazla
3300 ft yükseklikte az bulutlu

METAR: MSSA 282050Z 36003KT 9999 FEW033 37/19 Q1015 A2999

Saat: 06:55 (12:55 UTC)


TAF: eksik

4.000'den fazla havaalanı için hava durumu gözlemleri ve tahminleri (METAR ve TAF raporları).

Kullanılabilir istasyonlar harita üzerinde sarı ve kırmızı noktalarla gösterilir.

İstasyonun adını görmek için fareyi noktanın üzerinde gezdirin.

Sonrasında hava gözlem ve tahminlerini görmek için tıklayın.

Haritayı değiştirmek için: yaklaştırmak için siyah artı işaretli yeşil düğmeye ve uzaklaştırmak için de eksi işaretli düğmeye hızla tıklayın; bitişik haritalar için yeşil okları kullanın.


METAR-TAF: